Erquelinnes, Belgium
Current Conditions -  °F | °C
As of 5:20 PM on Sunday 25 Jan 2015 (Local Time) from EBCI Reporting Station
Few Clouds Few Clouds  
Wind Chill:   Ceiling: Unl
Heat Index:   Visibility: 4mi
Dew Point:   Wind: 7mph
Humidity: 93%   Direction: 210°SSW
Pressure: 30.39"   Gusts: NA
Location:  50.31°N, 4.11°E
Report Text: EBCI 251620Z 21006KT 7000 FEW007 03/02 Q1029 R25/290095 NOSIG
Loading
Personal Weather Stations






























Interactive Weather Map New forecast layout! Learn more

10-Day Weather Forecast

Advertisements
Track Severe Weather on mobile